createdAt,value
2022-11-25T00:01:56.620Z,100481.06
2022-11-25T00:04:24.796Z,100467.88
2022-11-25T00:06:57.401Z,100461.94
2022-11-25T00:09:25.751Z,100454.00
2022-11-25T00:11:57.022Z,100456.75
2022-11-25T00:14:25.500Z,100457.72
2022-11-25T00:16:55.205Z,100461.69
2022-11-25T00:19:23.246Z,100458.97
2022-11-25T00:21:51.463Z,100461.19
2022-11-25T00:24:23.419Z,100453.97
2022-11-25T00:26:51.514Z,100452.72
2022-11-25T00:29:19.968Z,100456.47
2022-11-25T00:31:48.122Z,100462.16
2022-11-25T00:34:16.499Z,100453.41
2022-11-25T00:36:47.850Z,100451.66
2022-11-25T00:39:17.697Z,100446.22
2022-11-25T00:42:05.790Z,100443.97
2022-11-25T00:44:37.773Z,100454.19
2022-11-25T00:47:09.940Z,100455.91
2022-11-25T00:49:38.946Z,100462.09
2022-11-25T00:52:08.115Z,100465.84
2022-11-25T00:54:38.068Z,100452.38
2022-11-25T00:57:08.056Z,100451.69
2022-11-25T00:59:37.850Z,100452.19
2022-11-25T01:02:06.308Z,100453.19
2022-11-25T01:04:36.995Z,100456.16
2022-11-25T01:07:06.045Z,100451.22
2022-11-25T01:09:36.234Z,100453.94
2022-11-25T01:12:07.143Z,100454.94
2022-11-25T01:14:36.157Z,100455.44
2022-11-25T01:17:05.189Z,100453.19
2022-11-25T01:19:34.555Z,100447.72
2022-11-25T01:22:02.697Z,100452.22
2022-11-25T01:24:31.228Z,100462.91
2022-11-25T01:27:00.881Z,100462.16
2022-11-25T01:29:30.422Z,100459.44
2022-11-25T01:31:58.948Z,100463.44
2022-11-25T01:34:32.505Z,100469.13
2022-11-25T01:37:01.106Z,100472.41
2022-11-25T01:39:32.783Z,100470.41
2022-11-25T01:42:01.965Z,100462.69
2022-11-25T01:44:32.615Z,100478.38
2022-11-25T01:47:10.402Z,100467.69
2022-11-25T01:49:45.602Z,100470.66
2022-11-25T01:52:19.228Z,100463.94
2022-11-25T01:54:56.310Z,100459.19
2022-11-25T01:57:29.194Z,100462.69
2022-11-25T02:00:01.873Z,100467.16
2022-11-25T02:02:33.318Z,100466.16
2022-11-25T02:05:02.692Z,100470.66
2022-11-25T02:07:35.961Z,100472.38
2022-11-25T02:10:08.608Z,100463.66
2022-11-25T02:12:41.863Z,100465.84
2022-11-25T02:15:14.093Z,100471.56
2022-11-25T02:17:45.187Z,100472.78
2022-11-25T02:20:16.005Z,100462.53
2022-11-25T02:22:58.910Z,100469.47
2022-11-25T02:25:31.209Z,100466.47
2022-11-25T02:28:03.233Z,100470.19
2022-11-25T02:30:31.703Z,100472.44
2022-11-25T02:33:01.825Z,100468.69
2022-11-25T02:35:34.417Z,100472.13
2022-11-25T02:38:09.867Z,100473.09
2022-11-25T02:40:44.499Z,100466.63
2022-11-25T02:43:13.660Z,100471.38
2022-11-25T02:45:53.723Z,100465.13
2022-11-25T02:48:39.819Z,100467.38
2022-11-25T02:51:13.335Z,100468.59
2022-11-25T02:53:41.860Z,100467.88
2022-11-25T02:56:13.964Z,100464.38
2022-11-25T02:58:44.068Z,100465.13
2022-11-25T03:01:13.813Z,100457.13
2022-11-25T03:03:42.244Z,100468.34
2022-11-25T03:06:12.392Z,100450.91
2022-11-25T03:08:40.513Z,100455.13
2022-11-25T03:11:19.551Z,100461.38
2022-11-25T03:13:49.350Z,100456.41
2022-11-25T03:16:19.561Z,100455.13
2022-11-25T03:18:47.632Z,100444.91
2022-11-25T03:21:18.504Z,100452.63
2022-11-25T03:23:48.294Z,100456.13
2022-11-25T03:26:23.072Z,100456.38
2022-11-25T03:28:51.584Z,100449.63
2022-11-25T03:31:20.423Z,100447.34
2022-11-25T03:33:49.025Z,100448.09
2022-11-25T03:36:19.525Z,100450.84
2022-11-25T03:38:50.429Z,100453.31
2022-11-25T03:41:21.082Z,100450.06
2022-11-25T03:43:50.049Z,100455.53
2022-11-25T03:46:19.035Z,100441.28
2022-11-25T03:48:47.970Z,100447.03
2022-11-25T03:51:16.842Z,100443.78
2022-11-25T03:53:45.663Z,100437.03
2022-11-25T03:56:15.731Z,100442.75
2022-11-25T03:58:45.204Z,100438.75
2022-11-25T04:01:14.866Z,100432.28
2022-11-25T04:03:48.191Z,100428.06
2022-11-25T04:06:20.135Z,100424.56
2022-11-25T04:08:54.512Z,100435.31
2022-11-25T04:11:43.159Z,100438.06
2022-11-25T04:14:13.267Z,100433.81
2022-11-25T04:16:41.949Z,100446.72
2022-11-25T04:19:10.475Z,100447.69
2022-11-25T04:21:39.238Z,100451.84
2022-11-25T04:24:08.420Z,100453.28
2022-11-25T04:26:36.623Z,100449.75
2022-11-25T04:29:07.339Z,100459.72
2022-11-25T04:31:39.926Z,100457.47
2022-11-25T04:34:08.898Z,100458.94
2022-11-25T04:36:37.205Z,100447.97
2022-11-25T04:39:06.945Z,100451.19
2022-11-25T04:41:36.527Z,100454.69
2022-11-25T04:44:04.955Z,100448.44
2022-11-25T04:46:39.328Z,100455.22
2022-11-25T04:49:12.397Z,100448.94
2022-11-25T04:51:43.327Z,100453.19
2022-11-25T04:54:17.471Z,100460.69
2022-11-25T04:56:47.695Z,100440.44
2022-11-25T04:59:35.801Z,100431.97
2022-11-25T05:02:09.643Z,100436.72
2022-11-25T05:04:42.205Z,100433.00
2022-11-25T05:07:12.639Z,100431.25
2022-11-25T05:09:41.917Z,100428.75
2022-11-25T05:12:20.118Z,100429.78
2022-11-25T05:14:54.543Z,100421.38
2022-11-25T05:17:30.387Z,100424.66
2022-11-25T05:20:01.600Z,100426.72
2022-11-25T05:22:35.619Z,100429.00
2022-11-25T05:25:06.882Z,100421.50
2022-11-25T05:27:40.238Z,100427.78
2022-11-25T05:30:12.488Z,100432.03
2022-11-25T05:32:44.178Z,100430.56
2022-11-25T05:35:14.529Z,100429.34
2022-11-25T05:37:43.968Z,100433.34
2022-11-25T05:40:12.955Z,100450.75
2022-11-25T05:42:57.377Z,100450.38
2022-11-25T05:45:26.546Z,100461.28
2022-11-25T05:47:56.531Z,100463.56
2022-11-25T05:50:29.372Z,100463.56
2022-11-25T05:53:17.522Z,100472.78
2022-11-25T05:55:56.440Z,100474.50
2022-11-25T05:58:46.040Z,100479.19
2022-11-25T06:01:23.338Z,100473.66
2022-11-25T06:03:52.608Z,100466.78
2022-11-25T06:06:25.798Z,100479.50
2022-11-25T06:08:54.567Z,100482.53
2022-11-25T06:11:27.542Z,100475.28
2022-11-25T06:13:57.991Z,100490.00
2022-11-25T06:16:30.438Z,100494.75
2022-11-25T06:19:12.484Z,100496.25
2022-11-25T06:21:43.007Z,100489.69
2022-11-25T06:24:12.097Z,100502.91
2022-11-25T06:26:42.373Z,100504.31
2022-11-25T06:29:12.517Z,100508.81
2022-11-25T06:31:45.216Z,100508.75
2022-11-25T06:34:34.734Z,100518.44
2022-11-25T06:37:08.151Z,100532.63
2022-11-25T06:39:38.537Z,100531.09
2022-11-25T06:42:06.989Z,100528.53
2022-11-25T06:44:35.442Z,100523.66
2022-11-25T06:47:05.909Z,100535.34
2022-11-25T06:49:34.493Z,100534.59
2022-11-25T06:52:03.117Z,100530.78
2022-11-25T06:54:33.325Z,100538.72
2022-11-25T06:57:01.925Z,100554.94
2022-11-25T06:59:31.843Z,100547.66
2022-11-25T07:02:00.507Z,100552.78
2022-11-25T07:04:29.357Z,100547.53
2022-11-25T07:06:57.804Z,100547.47
2022-11-25T07:09:27.376Z,100543.94
2022-11-25T07:11:59.854Z,100543.69
2022-11-25T07:14:30.550Z,100549.06
2022-11-25T07:16:58.767Z,100555.53
2022-11-25T07:19:33.854Z,100544.66
2022-11-25T07:22:04.602Z,100551.91
2022-11-25T07:24:34.370Z,100547.81
2022-11-25T07:27:09.075Z,100554.28
2022-11-25T07:30:03.162Z,100548.50
2022-11-25T07:32:33.329Z,100539.69
2022-11-25T07:35:03.833Z,100538.09
2022-11-25T07:37:31.964Z,100537.53
2022-11-25T07:40:12.358Z,100531.75
2022-11-25T07:42:42.135Z,100540.97
2022-11-25T07:45:11.505Z,100550.72
2022-11-25T07:47:46.149Z,100548.09
2022-11-25T07:50:16.575Z,100549.28
2022-11-25T07:52:46.493Z,100548.69
2022-11-25T07:55:17.609Z,100553.59
2022-11-25T07:57:47.825Z,100548.97
2022-11-25T08:00:17.154Z,100556.88
2022-11-25T08:02:45.888Z,100552.53
2022-11-25T08:05:17.339Z,100555.53
2022-11-25T08:07:45.874Z,100550.53
2022-11-25T08:10:14.231Z,100563.97
2022-11-25T08:12:42.652Z,100563.47
2022-11-25T08:15:15.548Z,100559.88
2022-11-25T08:17:45.258Z,100565.47
2022-11-25T08:20:14.498Z,100561.44
2022-11-25T08:22:42.908Z,100565.16
2022-11-25T08:25:12.747Z,100566.88
2022-11-25T08:27:44.655Z,100573.66
2022-11-25T08:30:18.855Z,100573.66
2022-11-25T08:32:47.772Z,100568.88
2022-11-25T08:35:17.535Z,100569.56
2022-11-25T08:37:47.810Z,100577.50
2022-11-25T08:40:16.884Z,100579.72
2022-11-25T08:42:46.579Z,100578.03
2022-11-25T08:45:15.938Z,100589.47
2022-11-25T08:47:45.501Z,100592.50
2022-11-25T08:50:16.338Z,100596.53
2022-11-25T08:52:45.993Z,100596.22
2022-11-25T08:55:16.002Z,100595.56
2022-11-25T08:57:45.767Z,100593.47
2022-11-25T09:00:19.010Z,100590.28
2022-11-25T09:02:50.718Z,100596.88
2022-11-25T09:05:19.271Z,100598.81
2022-11-25T09:07:48.812Z,100602.19
2022-11-25T09:10:18.358Z,100598.81
2022-11-25T09:12:46.911Z,100607.09
2022-11-25T09:15:18.293Z,100610.88
2022-11-25T09:17:48.314Z,100616.94
2022-11-25T09:20:17.660Z,100618.31
2022-11-25T09:22:46.180Z,100623.41
2022-11-25T09:25:17.949Z,100629.22
2022-11-25T09:27:46.409Z,100626.16
2022-11-25T09:30:22.203Z,100633.78
2022-11-25T09:32:56.419Z,100644.41
2022-11-25T09:35:29.176Z,100649.94
2022-11-25T09:37:57.417Z,100649.19
2022-11-25T09:40:35.701Z,100648.34
2022-11-25T09:43:35.315Z,100658.97
2022-11-25T09:46:33.956Z,100663.94
2022-11-25T09:49:18.414Z,100667.78
2022-11-25T09:51:58.246Z,100668.63
2022-11-25T09:54:37.609Z,100675.72
2022-11-25T09:57:22.736Z,100675.31
2022-11-25T10:00:03.345Z,100675.19
2022-11-25T10:02:46.577Z,100678.47
2022-11-25T10:05:22.307Z,100675.03
2022-11-25T10:07:57.926Z,100683.59
2022-11-25T10:10:29.642Z,100689.00
2022-11-25T10:13:00.419Z,100692.19
2022-11-25T10:15:33.791Z,100693.69
2022-11-25T10:18:12.017Z,100697.72
2022-11-25T10:20:44.135Z,100691.97
2022-11-25T10:23:27.646Z,100701.94
2022-11-25T10:26:03.568Z,100705.56
2022-11-25T10:28:34.796Z,100698.56
2022-11-25T10:31:07.998Z,100703.66
2022-11-25T10:33:46.939Z,100705.56
2022-11-25T10:36:20.171Z,100703.03
2022-11-25T10:38:57.606Z,100704.31
2022-11-25T10:41:29.431Z,100704.66
2022-11-25T10:44:00.166Z,100708.03
2022-11-25T10:47:11.771Z,100702.63
2022-11-25T10:49:39.348Z,100707.28
2022-11-25T10:52:41.828Z,100706.88
2022-11-25T10:55:15.588Z,100718.34
2022-11-25T10:57:44.914Z,100719.94
2022-11-25T11:00:30.427Z,100719.19
2022-11-25T11:03:00.704Z,100712.19
2022-11-25T11:05:32.198Z,100713.25
2022-11-25T11:08:11.185Z,100707.53
2022-11-25T11:10:40.187Z,100716.31
2022-11-25T11:13:22.680Z,100712.59
2022-11-25T11:15:51.858Z,100714.31
2022-11-25T11:18:29.808Z,100718.25
2022-11-25T11:21:02.602Z,100713.47
2022-11-25T11:23:53.224Z,100723.66
2022-11-25T11:26:28.861Z,100723.84
2022-11-25T11:29:11.193Z,100724.84
2022-11-25T11:31:48.405Z,100718.66
2022-11-25T11:34:44.027Z,100722.38
2022-11-25T11:37:26.876Z,100724.81
2022-11-25T11:40:04.170Z,100727.66
2022-11-25T11:42:44.708Z,100725.75
2022-11-25T11:45:28.650Z,100721.00
2022-11-25T11:48:15.098Z,100727.44
2022-11-25T11:50:48.802Z,100728.31
2022-11-25T11:53:30.260Z,100727.63
2022-11-25T11:59:09.745Z,100729.28
2022-11-25T12:01:50.487Z,100741.00
2022-11-25T12:04:28.875Z,100741.94
2022-11-25T12:07:06.312Z,100751.19
2022-11-25T12:09:46.774Z,100745.34
2022-11-25T12:12:19.239Z,100752.88
2022-11-25T12:14:52.556Z,100757.75
2022-11-25T12:17:29.533Z,100753.84
2022-11-25T12:20:07.897Z,100757.56
2022-11-25T12:22:44.895Z,100767.75
2022-11-25T12:25:21.307Z,100767.91
2022-11-25T12:27:59.293Z,100761.50
2022-11-25T12:30:38.572Z,100767.25
2022-11-25T12:33:13.896Z,100758.06
2022-11-25T12:35:50.632Z,100770.44
2022-11-25T12:38:30.245Z,100770.31
2022-11-25T12:41:13.628Z,100766.38
2022-11-25T12:43:49.851Z,100763.28
2022-11-25T12:46:30.345Z,100765.19
2022-11-25T12:49:00.106Z,100770.16
2022-11-25T12:51:42.976Z,100773.16
2022-11-25T12:54:26.172Z,100777.28
2022-11-25T12:57:21.923Z,100781.44
2022-11-25T13:00:39.135Z,100785.13
2022-11-25T13:03:28.117Z,100790.00
2022-11-25T13:06:16.245Z,100800.31
2022-11-25T13:08:58.476Z,100799.84
2022-11-25T13:11:51.979Z,100809.53
2022-11-25T13:14:29.531Z,100806.91
2022-11-25T13:17:02.151Z,100807.66
2022-11-25T13:19:37.089Z,100812.50
2022-11-25T13:22:07.194Z,100814.56
2022-11-25T13:24:41.503Z,100821.19
2022-11-25T13:27:31.697Z,100821.91
2022-11-25T13:30:04.429Z,100822.44
2022-11-25T13:32:41.464Z,100822.66
2022-11-25T13:35:38.310Z,100823.09
2022-11-25T13:38:34.006Z,100827.38
2022-11-25T13:41:04.712Z,100839.13
2022-11-25T13:43:35.931Z,100835.59
2022-11-25T13:46:06.993Z,100836.56
2022-11-25T13:48:37.918Z,100837.63
2022-11-25T13:51:19.704Z,100838.56
2022-11-25T13:53:54.929Z,100848.38
2022-11-25T13:56:31.542Z,100851.25
2022-11-25T13:59:38.172Z,100851.88
2022-11-25T14:02:41.828Z,100862.22
2022-11-25T14:05:42.519Z,100857.72
2022-11-25T14:08:23.087Z,100861.22
2022-11-25T14:11:35.668Z,100873.69
2022-11-25T14:14:23.741Z,100877.72
2022-11-25T14:17:24.682Z,100872.72
2022-11-25T14:20:13.012Z,100872.22
2022-11-25T14:23:04.774Z,100872.63
2022-11-25T14:25:44.263Z,100880.06
2022-11-25T14:28:26.007Z,100884.31
2022-11-25T14:31:00.954Z,100884.22
2022-11-25T14:33:35.645Z,100889.66
2022-11-25T14:36:12.146Z,100897.50
2022-11-25T14:38:46.645Z,100903.69
2022-11-25T14:41:33.370Z,100905.91
2022-11-25T14:44:32.159Z,100909.88
2022-11-25T14:47:05.925Z,100908.69
2022-11-25T14:50:05.101Z,100914.75
2022-11-25T14:52:43.864Z,100917.00
2022-11-25T14:55:13.984Z,100922.75
2022-11-25T14:57:46.480Z,100931.03
2022-11-25T15:00:18.435Z,100931.34
2022-11-25T15:02:57.240Z,100927.38
2022-11-25T15:05:33.464Z,100929.53
2022-11-25T15:08:11.808Z,100932.28
2022-11-25T15:10:46.889Z,100944.72
2022-11-25T15:13:28.287Z,100942.28
2022-11-25T15:16:03.683Z,100949.63
2022-11-25T15:18:34.875Z,100944.72
2022-11-25T15:21:04.311Z,100948.75
2022-11-25T15:23:41.298Z,100946.09
2022-11-25T15:26:19.843Z,100943.88
2022-11-25T15:28:49.673Z,100948.94
2022-11-25T15:31:21.812Z,100954.03
2022-11-25T15:33:57.438Z,100957.63
2022-11-25T15:36:30.762Z,100952.84
2022-11-25T15:39:16.872Z,100960.78
2022-11-25T15:41:48.473Z,100956.66
2022-11-25T15:44:24.637Z,100972.78
2022-11-25T15:47:00.941Z,100974.34
2022-11-25T15:49:32.564Z,100974.66
2022-11-25T15:52:06.960Z,100979.22
2022-11-25T15:54:44.074Z,100976.97
2022-11-25T15:57:17.946Z,100983.25
2022-11-25T15:59:53.008Z,100987.28
2022-11-25T16:02:34.353Z,100997.06
2022-11-25T16:05:31.626Z,100998.25
2022-11-25T16:08:25.192Z,100995.50
2022-11-25T16:10:59.369Z,100992.22
2022-11-25T16:13:39.635Z,100995.94
2022-11-25T16:16:20.948Z,101001.47
2022-11-25T16:19:05.093Z,100999.44
2022-11-25T16:21:45.973Z,101008.19
2022-11-25T16:24:47.360Z,101009.44
2022-11-25T16:27:21.089Z,100999.47
2022-11-25T16:29:54.226Z,101003.75
2022-11-25T16:32:24.428Z,101010.53
2022-11-25T16:34:56.209Z,101012.53
2022-11-25T16:37:25.426Z,101021.38
2022-11-25T16:39:55.268Z,101015.09
2022-11-25T16:42:27.057Z,101019.66
2022-11-25T16:45:01.496Z,101021.38
2022-11-25T16:47:29.899Z,101020.94
2022-11-25T16:49:58.147Z,101029.00
2022-11-25T16:52:26.638Z,101031.00
2022-11-25T16:55:02.224Z,101031.53
2022-11-25T16:57:31.952Z,101036.09
2022-11-25T17:00:02.288Z,101042.56
2022-11-25T17:02:31.748Z,101052.38
2022-11-25T17:05:02.365Z,101057.91
2022-11-25T17:07:33.844Z,101054.91
2022-11-25T17:10:06.813Z,101067.44
2022-11-25T17:12:39.596Z,101063.72
2022-11-25T17:15:15.121Z,101069.00
2022-11-25T17:17:44.393Z,101075.34
2022-11-25T17:20:16.946Z,101079.69
2022-11-25T17:22:45.513Z,101081.28
2022-11-25T17:25:17.474Z,101078.78
2022-11-25T17:27:50.084Z,101078.28
2022-11-25T17:30:23.052Z,101078.13
2022-11-25T17:33:00.103Z,101084.47
2022-11-25T17:35:28.821Z,101096.25
2022-11-25T17:38:14.466Z,101101.84
2022-11-25T17:40:44.970Z,101109.53
2022-11-25T17:43:19.085Z,101107.81
2022-11-25T17:45:51.280Z,101107.81
2022-11-25T17:48:21.855Z,101115.66
2022-11-25T17:50:52.629Z,101118.94
2022-11-25T17:53:21.821Z,101125.94
2022-11-25T17:55:54.180Z,101131.44
2022-11-25T17:58:25.202Z,101139.22
2022-11-25T18:00:53.976Z,101136.47
2022-11-25T18:03:22.243Z,101137.38
2022-11-25T18:05:51.464Z,101143.84
2022-11-25T18:08:20.918Z,101154.41
2022-11-25T18:10:50.383Z,101160.97
2022-11-25T18:13:22.143Z,101164.47
2022-11-25T18:15:52.111Z,101160.16
2022-11-25T18:18:23.025Z,101159.84
2022-11-25T18:20:52.982Z,101168.34
2022-11-25T18:23:21.034Z,101179.56
2022-11-25T18:25:50.031Z,101178.09
2022-11-25T18:28:22.107Z,101181.59
2022-11-25T18:30:57.142Z,101183.84
2022-11-25T18:33:26.092Z,101188.09
2022-11-25T18:35:54.507Z,101192.56
2022-11-25T18:38:25.739Z,101200.84
2022-11-25T18:40:59.367Z,101196.88
2022-11-25T18:43:29.752Z,101196.84
2022-11-25T18:46:00.961Z,101201.88
2022-11-25T18:48:29.315Z,101210.47
2022-11-25T18:51:02.600Z,101218.75
2022-11-25T18:53:31.013Z,101223.00
2022-11-25T18:56:03.669Z,101224.97
2022-11-25T18:58:33.213Z,101238.78
2022-11-25T19:01:07.579Z,101234.53
2022-11-25T19:03:38.457Z,101244.06
2022-11-25T19:06:21.913Z,101251.84
2022-11-25T19:08:53.817Z,101250.34
2022-11-25T19:11:30.995Z,101258.41
2022-11-25T19:14:08.870Z,101259.38
2022-11-25T19:16:40.369Z,101263.69
2022-11-25T19:19:15.711Z,101264.94
2022-11-25T19:21:45.758Z,101269.72
2022-11-25T19:24:24.766Z,101276.00
2022-11-25T19:26:55.653Z,101279.75
2022-11-25T19:29:30.706Z,101284.28
2022-11-25T19:32:05.185Z,101296.59
2022-11-25T19:34:36.890Z,101296.59
2022-11-25T19:37:05.754Z,101306.69
2022-11-25T19:39:51.370Z,101312.72
2022-11-25T19:42:20.459Z,101311.22
2022-11-25T19:44:53.085Z,101324.78
2022-11-25T19:47:27.395Z,101331.06
2022-11-25T19:50:00.124Z,101333.56
2022-11-25T19:52:38.319Z,101333.75
2022-11-25T19:55:15.116Z,101341.06
2022-11-25T19:57:44.098Z,101340.31
2022-11-25T20:00:17.008Z,101339.53
2022-11-25T20:02:49.689Z,101344.38
2022-11-25T20:05:21.601Z,101351.66
2022-11-25T20:07:51.404Z,101350.91
2022-11-25T20:10:23.247Z,101361.50
2022-11-25T20:12:55.345Z,101365.50
2022-11-25T20:15:24.555Z,101368.06
2022-11-25T20:17:56.828Z,101378.31
2022-11-25T20:20:28.652Z,101383.41
2022-11-25T20:23:02.997Z,101378.13
2022-11-25T20:25:37.593Z,101386.22
2022-11-25T20:28:16.258Z,101382.44
2022-11-25T20:30:49.437Z,101389.72
2022-11-25T20:33:26.297Z,101394.78
2022-11-25T20:36:06.728Z,101392.59
2022-11-25T20:38:39.286Z,101403.66
2022-11-25T20:41:08.884Z,101406.94
2022-11-25T20:43:41.302Z,101413.72
2022-11-25T20:46:18.437Z,101422.25
2022-11-25T20:48:48.888Z,101420.78
2022-11-25T20:51:20.776Z,101426.53
2022-11-25T20:53:51.330Z,101428.56
2022-11-25T20:56:23.003Z,101435.34
2022-11-25T20:58:51.277Z,101430.09
2022-11-25T21:01:20.365Z,101434.84
2022-11-25T21:03:51.046Z,101439.63
2022-11-25T21:06:22.262Z,101452.44
2022-11-25T21:08:53.760Z,101450.97
2022-11-25T21:11:24.072Z,101458.03
2022-11-25T21:13:57.023Z,101466.56
2022-11-25T21:16:27.437Z,101465.84
2022-11-25T21:18:57.122Z,101461.63
2022-11-25T21:21:33.663Z,101466.44
2022-11-25T21:24:19.682Z,101470.47
2022-11-25T21:26:48.224Z,101467.72
2022-11-25T21:29:18.373Z,101475.72
2022-11-25T21:31:47.008Z,101472.97
2022-11-25T21:34:17.687Z,101472.19
2022-11-25T21:36:46.686Z,101476.72
2022-11-25T21:39:23.766Z,101475.47
2022-11-25T21:41:54.199Z,101477.69
2022-11-25T21:44:29.810Z,101481.44
2022-11-25T21:47:00.983Z,101483.44
2022-11-25T21:49:32.058Z,101481.16
2022-11-25T21:52:00.270Z,101475.88
2022-11-25T21:54:28.474Z,101481.88
2022-11-25T21:57:00.586Z,101478.88
2022-11-25T21:59:31.249Z,101483.59
2022-11-25T22:02:00.880Z,101480.09
2022-11-25T22:04:31.249Z,101490.31
2022-11-25T22:06:59.643Z,101490.28
2022-11-25T22:09:29.037Z,101497.81
2022-11-25T22:12:00.164Z,101506.00
2022-11-25T22:14:37.517Z,101503.72
2022-11-25T22:17:11.224Z,101511.19
2022-11-25T22:19:41.892Z,101511.84
2022-11-25T22:22:13.482Z,101514.78
2022-11-25T22:24:43.003Z,101513.72
2022-11-25T22:27:23.993Z,101517.16
2022-11-25T22:29:55.974Z,101508.84
2022-11-25T22:32:25.787Z,101516.06
2022-11-25T22:34:55.974Z,101512.31
2022-11-25T22:37:24.958Z,101515.50
2022-11-25T22:39:54.234Z,101520.97
2022-11-25T22:42:27.342Z,101530.19
2022-11-25T22:44:57.286Z,101542.28
2022-11-25T22:47:29.870Z,101536.97
2022-11-25T22:50:09.529Z,101538.25
2022-11-25T22:52:39.916Z,101549.16
2022-11-25T22:55:19.364Z,101545.91
2022-11-25T22:57:51.816Z,101548.59
2022-11-25T23:00:22.587Z,101550.81
2022-11-25T23:02:54.317Z,101560.78
2022-11-25T23:05:34.070Z,101565.44
2022-11-25T23:08:03.074Z,101564.84
2022-11-25T23:10:32.710Z,101571.53
2022-11-25T23:13:08.232Z,101570.94
2022-11-25T23:15:37.263Z,101571.34
2022-11-25T23:18:14.924Z,101573.06
2022-11-25T23:20:50.788Z,101584.03
2022-11-25T23:23:25.273Z,101588.34
2022-11-25T23:25:55.382Z,101585.34
2022-11-25T23:28:27.958Z,101586.09
2022-11-25T23:30:59.931Z,101592.09
2022-11-25T23:33:31.538Z,101599.22
2022-11-25T23:36:08.695Z,101600.44
2022-11-25T23:38:42.654Z,101609.91
2022-11-25T23:41:15.472Z,101602.81
2022-11-25T23:44:06.790Z,101603.94
2022-11-25T23:46:37.172Z,101615.50
2022-11-25T23:49:08.246Z,101616.81
2022-11-25T23:51:40.544Z,101614.59
2022-11-25T23:54:15.057Z,101616.88
2022-11-25T23:56:43.965Z,101615.16
2022-11-25T23:59:15.696Z,101624.22
